Time;durP1;ratioP1;P1;durP2;ratioP2;P2;SDS_P1;SDS_P2;PMS_P1;PMS_P2;Temp;Humidity;BMP_temperature;BMP_pressure;BME280_temperature;BME280_humidity;BME280_pressure;Samples;Min_cycle;Max_cycle;Signal;HPM_P1;HPM_P2
2024/03/19 00:03:08;;;;;;;13.35;3.25;;;17.30;99.90;;;;;;10518380;28;20063;-59
2024/03/19 00:08:10;;;;;;;14.18;3.45;;;17.20;99.90;;;;;;10521118;28;20051;-57
2024/03/19 00:13:13;;;;;;;8.70;3.13;;;17.20;99.90;;;;;;10515495;28;20615;-55
2024/03/19 00:18:15;;;;;;;18.52;4.38;;;16.90;99.90;;;;;;10511189;28;20540;-53
2024/03/19 00:23:18;;;;;;;8.37;3.27;;;17.40;99.90;;;;;;10522519;28;20067;-55
2024/03/19 00:28:21;;;;;;;8.70;2.92;;;16.70;99.90;;;;;;10518811;28;20477;-55
2024/03/19 00:33:23;;;;;;;10.63;3.15;;;15.80;99.90;;;;;;10520978;28;20510;-55
2024/03/19 00:38:26;;;;;;;9.93;3.17;;;16.00;99.90;;;;;;10518848;28;20051;-53
2024/03/19 00:43:29;;;;;;;;;;;14.80;99.90;;;;;;10527590;28;20691;-55
2024/03/19 00:48:31;;;;;;;12.57;3.08;;;14.50;99.90;;;;;;10525303;28;19935;-56
2024/03/19 00:53:33;;;;;;;6.68;2.70;;;14.30;99.90;;;;;;10522996;28;20050;-55
2024/03/19 00:58:37;;;;;;;9.77;3.13;;;14.80;99.90;;;;;;10498161;28;20079;-55
2024/03/19 01:03:38;;;;;;;7.10;3.53;;;14.00;99.90;;;;;;10516717;28;20404;-56
2024/03/19 01:08:41;;;;;;;7.27;2.90;;;13.40;99.90;;;;;;10514171;28;20058;-55
2024/03/19 01:13:44;;;;;;;5.57;2.55;;;14.00;99.90;;;;;;10520599;28;20091;-55
2024/03/19 01:18:46;;;;;;;5.10;2.80;;;14.90;99.90;;;;;;10514284;28;20052;-52
2024/03/19 01:23:48;;;;;;;12.47;4.47;;;14.50;99.90;;;;;;10515519;28;20752;-55
2024/03/19 01:28:52;;;;;;;9.38;2.95;;;14.30;99.90;;;;;;10519814;28;20052;-54
2024/03/19 01:33:54;;;;;;;9.13;2.63;;;14.30;99.90;;;;;;10511937;28;20717;-55
2024/03/19 01:38:56;;;;;;;14.50;3.47;;;15.40;99.90;;;;;;10519083;28;20040;-57
2024/03/19 01:43:59;;;;;;;8.70;2.57;;;15.60;99.90;;;;;;10507662;28;20045;-55
2024/03/19 01:49:02;;;;;;;7.65;3.22;;;15.90;99.90;;;;;;10518969;28;21274;-55
2024/03/19 01:54:05;;;;;;;6.60;2.25;;;15.60;99.90;;;;;;10515615;28;20525;-56
2024/03/19 01:59:09;;;;;;;7.18;2.67;;;16.30;99.90;;;;;;10515307;28;20114;-56
2024/03/19 02:04:12;;;;;;;8.55;2.58;;;16.10;99.90;;;;;;10520214;28;20063;-56
2024/03/19 02:09:14;;;;;;;;;;;15.70;99.90;;;;;;10519340;28;20070;-54
2024/03/19 02:14:17;;;;;;;8.15;2.05;;;16.10;99.90;;;;;;10514427;28;19931;-56
2024/03/19 02:19:19;;;;;;;10.65;2.50;;;16.50;99.90;;;;;;10515662;28;20470;-55
2024/03/19 02:24:22;;;;;;;4.87;2.40;;;16.40;99.90;;;;;;10509930;28;20055;-56
2024/03/19 02:29:25;;;;;;;6.90;2.15;;;16.20;99.90;;;;;;10518377;28;20040;-55
2024/03/19 02:34:27;;;;;;;8.20;2.42;;;16.90;99.90;;;;;;10510578;28;20109;-55
2024/03/19 02:39:30;;;;;;;4.32;1.42;;;17.00;99.90;;;;;;10513424;28;20037;-56
2024/03/19 02:44:32;;;;;;;5.68;2.00;;;17.10;99.90;;;;;;10512733;28;20086;-54
2024/03/19 02:49:34;;;;;;;3.53;2.05;;;17.10;99.90;;;;;;10504359;28;20542;-56
2024/03/19 02:54:37;;;;;;;5.75;1.60;;;16.90;99.90;;;;;;10509355;28;20074;-55
2024/03/19 02:59:39;;;;;;;11.40;2.90;;;17.10;99.90;;;;;;10510259;28;20074;-55
2024/03/19 03:04:41;;;;;;;3.75;1.77;;;17.10;99.90;;;;;;10501335;28;20076;-54
2024/03/19 03:09:45;;;;;;;9.57;2.65;;;17.20;99.90;;;;;;10501514;28;20587;-57
2024/03/19 03:14:48;;;;;;;9.02;2.35;;;17.20;99.90;;;;;;10511008;28;20143;-54
2024/03/19 03:19:50;;;;;;;9.40;2.28;;;17.00;99.90;;;;;;10514095;28;22591;-54
2024/03/19 03:24:53;;;;;;;8.82;2.60;;;16.60;99.90;;;;;;10510078;28;20055;-55
2024/03/19 03:29:55;;;;;;;8.20;2.70;;;16.20;99.90;;;;;;10507112;28;20685;-56
2024/03/19 03:34:57;;;;;;;6.20;2.33;;;16.90;99.90;;;;;;10510231;28;20054;-53
2024/03/19 03:40:01;;;;;;;5.82;2.15;;;17.00;99.90;;;;;;10523992;28;21799;-54
2024/03/19 03:45:03;;;;;;;6.18;2.22;;;16.90;99.90;;;;;;10519587;28;20055;-53
2024/03/19 03:50:06;;;;;;;8.73;2.10;;;17.00;99.90;;;;;;10519699;28;20268;-51
2024/03/19 03:55:11;;;;;;;12.07;2.53;;;16.20;99.90;;;;;;10502347;28;20848;-51
2024/03/19 04:00:17;;;;;;;10.85;2.95;;;16.70;99.90;;;;;;10516310;28;20055;-53
2024/03/19 04:15:32;;;;;;;4.45;1.60;;;17.00;99.90;;;;;;10534769;27;20754;-54
2024/03/19 04:20:34;;;;;;;7.13;2.50;;;17.10;99.90;;;;;;10524744;28;20090;-56
2024/03/19 04:25:36;;;;;;;6.60;2.15;;;16.70;99.90;;;;;;10537198;27;20649;-56
2024/03/19 04:30:39;;;;;;;3.70;1.95;;;16.70;99.90;;;;;;10532580;28;20146;-56
2024/03/19 04:35:41;;;;;;;5.43;2.42;;;16.50;99.90;;;;;;10527528;28;20518;-55
2024/03/19 04:40:43;;;;;;;4.20;1.98;;;16.30;99.90;;;;;;10528822;28;20221;-54
2024/03/19 04:45:47;;;;;;;7.90;3.05;;;16.90;99.90;;;;;;10535314;28;20056;-55
2024/03/19 04:50:49;;;;;;;5.57;1.70;;;17.10;99.90;;;;;;10525051;28;20056;-55
2024/03/19 04:55:51;;;;;;;5.03;1.80;;;16.80;99.90;;;;;;10532238;28;20051;-55
2024/03/19 05:00:55;;;;;;;5.70;2.05;;;17.20;99.90;;;;;;10539924;27;20102;-56
2024/03/19 05:05:57;;;;;;;6.38;1.92;;;17.10;99.90;;;;;;10535990;28;20523;-55
2024/03/19 05:10:59;;;;;;;7.88;2.80;;;16.90;99.90;;;;;;10534811;28;20067;-55
2024/03/19 05:16:03;;;;;;;5.70;2.58;;;17.00;99.90;;;;;;10531795;28;20139;-55
2024/03/19 05:21:05;;;;;;;7.97;2.42;;;17.00;99.90;;;;;;10533857;28;20054;-54
2024/03/19 05:26:08;;;;;;;4.43;1.98;;;16.90;99.90;;;;;;10508355;28;20055;-56
2024/03/19 05:31:21;;;;;;;;;;;17.30;99.90;;;;;;10504665;28;20043;-54
2024/03/19 05:36:23;;;;;;;8.70;2.38;;;17.20;99.90;;;;;;10504493;28;19924;-55
2024/03/19 05:41:25;;;;;;;3.67;2.00;;;17.40;99.90;;;;;;10501066;28;20048;-55
2024/03/19 05:46:30;;;;;;;8.60;2.35;;;17.20;99.90;;;;;;10502485;28;20074;-56
2024/03/19 05:51:32;;;;;;;6.13;2.60;;;17.40;99.90;;;;;;10503412;28;20059;-56
2024/03/19 05:56:34;;;;;;;7.57;3.40;;;17.10;99.90;;;;;;10507231;28;20498;-55
2024/03/19 06:01:37;;;;;;;7.95;3.05;;;16.70;99.90;;;;;;10502776;28;20101;-55
2024/03/19 06:06:39;;;;;;;6.47;2.80;;;16.30;99.90;;;;;;10499579;28;20185;-53
2024/03/19 06:11:42;;;;;;;10.97;2.83;;;16.80;99.90;;;;;;10501490;28;20075;-55
2024/03/19 06:16:46;;;;;;;10.25;3.17;;;16.60;99.90;;;;;;10504739;28;20485;-55
2024/03/19 06:21:48;;;;;;;6.95;2.40;;;16.80;99.90;;;;;;10505866;28;20048;-54
2024/03/19 06:26:50;;;;;;;;;;;17.20;99.90;;;;;;10501676;28;20048;-57
2024/03/19 06:31:54;;;;;;;7.17;2.67;;;17.70;99.90;;;;;;10503262;28;19928;-53
2024/03/19 06:36:56;;;;;;;7.70;2.05;;;17.70;99.90;;;;;;10498353;28;20162;-54
2024/03/19 06:41:59;;;;;;;6.57;2.38;;;17.80;99.90;;;;;;10499943;28;20050;-55
2024/03/19 06:47:02;;;;;;;9.38;2.08;;;18.00;99.90;;;;;;10498503;28;20044;-54
2024/03/19 06:52:05;;;;;;;5.82;2.33;;;18.00;99.90;;;;;;10490815;28;20491;-53
2024/03/19 06:57:07;;;;;;;;;;;18.20;99.90;;;;;;10496490;28;20052;-56
2024/03/19 07:02:13;;;;;;;7.18;2.78;;;18.10;99.90;;;;;;10495537;28;19920;-54
2024/03/19 07:07:17;;;;;;;7.05;2.28;;;17.90;99.90;;;;;;10501367;28;20418;-53
2024/03/19 07:12:19;;;;;;;9.43;2.13;;;18.00;99.90;;;;;;10495898;28;20103;-54
2024/03/19 07:17:22;;;;;;;5.78;2.15;;;18.20;99.90;;;;;;10502097;28;20795;-56
2024/03/19 07:22:25;;;;;;;5.40;2.28;;;18.30;99.90;;;;;;10497542;28;20927;-56
2024/03/19 07:27:26;;;;;;;4.63;1.83;;;18.60;99.90;;;;;;10496332;28;20043;-55
2024/03/19 07:32:30;;;;;;;7.05;2.55;;;18.80;99.90;;;;;;10498521;28;20055;-56
2024/03/19 07:37:32;;;;;;;9.02;2.38;;;18.90;99.90;;;;;;10507506;28;20578;-57
2024/03/19 07:42:35;;;;;;;8.25;2.83;;;18.90;99.90;;;;;;10501829;28;20051;-56
2024/03/19 07:47:38;;;;;;;7.57;2.15;;;18.90;99.90;;;;;;10499847;28;20052;-57
2024/03/19 07:52:40;;;;;;;8.57;3.08;;;18.80;99.90;;;;;;10507183;28;20056;-55
2024/03/19 07:57:42;;;;;;;10.45;2.38;;;18.70;99.90;;;;;;10495656;28;20052;-55
2024/03/19 08:02:46;;;;;;;6.03;1.98;;;19.10;99.90;;;;;;10497200;28;20044;-54
2024/03/19 08:07:48;;;;;;;12.98;2.65;;;19.10;99.90;;;;;;10498896;28;20076;-53
2024/03/19 08:12:50;;;;;;;3.65;1.67;;;19.00;99.90;;;;;;10495277;28;20102;-51
2024/03/19 08:17:54;;;;;;;4.85;1.73;;;18.80;99.90;;;;;;10498851;28;20047;-56
2024/03/19 08:22:56;;;;;;;8.95;2.05;;;18.90;99.90;;;;;;10496028;28;23196;-56
2024/03/19 08:27:58;;;;;;;5.53;1.70;;;18.70;99.90;;;;;;10500499;28;20167;-60
2024/03/19 08:33:02;;;;;;;6.53;1.80;;;18.90;99.90;;;;;;10503323;28;20735;-56
2024/03/19 08:38:05;;;;;;;4.25;1.83;;;18.80;99.90;;;;;;10506200;28;20055;-56
2024/03/19 08:43:07;;;;;;;5.28;2.35;;;18.80;99.90;;;;;;10499869;28;20151;-55
2024/03/19 08:48:10;;;;;;;6.97;2.50;;;18.90;99.90;;;;;;10505515;28;20792;-54
2024/03/19 08:53:12;;;;;;;8.93;2.30;;;18.70;99.90;;;;;;10498228;28;20055;-54
2024/03/19 08:58:14;;;;;;;6.18;2.00;;;18.60;99.90;;;;;;10497078;28;20152;-57
2024/03/19 09:03:18;;;;;;;9.35;2.15;;;18.80;99.90;;;;;;10513356;28;20074;-51
2024/03/19 09:08:20;;;;;;;11.60;2.50;;;19.10;99.90;;;;;;10502206;28;20058;-56
2024/03/19 09:13:22;;;;;;;5.85;1.90;;;19.00;99.90;;;;;;10497396;28;20089;-56
2024/03/19 09:18:26;;;;;;;7.10;2.30;;;18.90;99.90;;;;;;10491433;28;20047;-55
2024/03/19 09:23:28;;;;;;;9.05;3.33;;;18.40;99.90;;;;;;10497005;28;20044;-56
2024/03/19 09:28:31;;;;;;;7.50;2.72;;;17.90;99.90;;;;;;10497192;28;20039;-54
2024/03/19 09:33:34;;;;;;;4.78;1.88;;;18.30;99.90;;;;;;10499031;28;20052;-55
2024/03/19 09:38:36;;;;;;;7.88;2.25;;;18.40;99.90;;;;;;10498442;28;20415;-54
2024/03/19 09:43:38;;;;;;;6.20;2.13;;;18.00;99.90;;;;;;10497612;28;20047;-56
2024/03/19 09:48:43;;;;;;;13.25;2.60;;;18.80;99.90;;;;;;10499615;28;20593;-55
2024/03/19 09:53:46;;;;;;;18.55;3.08;;;17.70;99.90;;;;;;10499062;28;20062;-56
2024/03/19 09:58:51;;;;;;;9.00;2.90;;;18.20;99.90;;;;;;10497396;28;20081;-57
2024/03/19 10:03:54;;;;;;;9.90;2.92;;;16.40;99.90;;;;;;10500502;28;20047;-54
2024/03/19 10:08:56;;;;;;;9.80;2.58;;;16.10;99.90;;;;;;10499459;28;20050;-54
2024/03/19 10:13:58;;;;;;;19.58;4.38;;;17.20;99.90;;;;;;10498494;28;20142;-56
2024/03/19 10:19:02;;;;;;;16.73;3.90;;;17.20;99.90;;;;;;10504481;28;20402;-55
2024/03/19 10:24:14;;;;;;;13.13;3.15;;;17.70;99.90;;;;;;10499569;28;20056;-54
2024/03/19 10:29:17;;;;;;;11.83;2.40;;;17.60;99.90;;;;;;10498356;28;20052;-54
2024/03/19 10:34:23;;;;;;;12.88;3.00;;;17.00;99.90;;;;;;10497528;28;20052;-55
2024/03/19 10:39:25;;;;;;;7.90;3.15;;;15.80;99.90;;;;;;10497834;28;20044;-54
2024/03/19 10:44:29;;;;;;;10.03;2.77;;;16.00;99.90;;;;;;10497803;28;20051;-53
2024/03/19 10:49:34;;;;;;;12.80;3.67;;;16.30;99.90;;;;;;10500251;28;20473;-53
2024/03/19 10:54:40;;;;;;;13.25;2.80;;;15.60;99.90;;;;;;10496444;28;20040;-53
2024/03/19 10:59:42;;;;;;;10.85;2.60;;;17.00;99.90;;;;;;10496266;28;20076;-53
2024/03/19 11:04:56;;;;;;;9.57;3.10;;;17.50;99.90;;;;;;10495510;28;20048;-55
2024/03/19 11:09:58;;;;;;;11.10;3.05;;;17.50;99.90;;;;;;10491432;28;21068;-54
2024/03/19 11:15:00;;;;;;;13.63;4.20;;;16.80;99.90;;;;;;10499963;28;20480;-55
2024/03/19 11:20:05;;;;;;;13.55;3.50;;;16.00;99.90;;;;;;10504820;28;20748;-51
2024/03/19 11:25:08;;;;;;;11.30;2.95;;;16.30;99.90;;;;;;10499203;28;20051;-53
2024/03/19 11:30:14;;;;;;;11.75;3.55;;;16.60;99.90;;;;;;10501009;28;20142;-54
2024/03/19 11:35:22;;;;;;;14.93;3.90;;;15.90;99.90;;;;;;10505930;28;20524;-52
2024/03/19 11:40:24;;;;;;;10.48;3.15;;;15.90;99.90;;;;;;10493574;28;20075;-54
2024/03/19 11:45:26;;;;;;;11.43;3.92;;;16.60;99.90;;;;;;10493554;28;20036;-54
2024/03/19 11:50:30;;;;;;;17.27;4.23;;;16.70;99.90;;;;;;10492439;28;20082;-54
2024/03/19 11:55:32;;;;;;;14.48;3.47;;;16.20;99.90;;;;;;10493535;28;20504;-55
2024/03/19 12:00:36;;;;;;;14.43;4.70;;;16.30;99.90;;;;;;10491601;28;20713;-54
2024/03/19 12:05:45;;;;;;;16.15;4.53;;;16.60;99.90;;;;;;10493694;28;20068;-54
2024/03/19 12:10:48;;;;;;;10.65;5.45;;;16.20;99.90;;;;;;10493895;28;20060;-56
2024/03/19 12:15:50;;;;;;;17.10;5.03;;;16.20;99.90;;;;;;10493261;28;20140;-54
2024/03/19 12:20:54;;;;;;;11.77;4.82;;;16.00;99.90;;;;;;10493275;28;20055;-56
2024/03/19 12:25:56;;;;;;;9.68;3.88;;;16.20;99.90;;;;;;10489134;28;20132;-57
2024/03/19 12:31:00;;;;;;;19.08;5.63;;;16.40;99.90;;;;;;10499040;28;20503;-58
2024/03/19 12:36:04;;;;;;;10.65;4.32;;;16.30;99.90;;;;;;10497826;28;20100;-54
